sensor_id;sensor_type;location;lat;lon;timestamp;temperature;humidity
19692;DHT22;42748;50.016;19.890;2023-04-08T00:02:15;2.70;99.90
19692;DHT22;42748;50.016;19.890;2023-04-08T00:04:42;2.70;99.90
19692;DHT22;42748;50.016;19.890;2023-04-08T00:07:10;2.70;99.90
19692;DHT22;42748;50.016;19.890;2023-04-08T00:09:37;2.70;99.90
19692;DHT22;42748;50.016;19.890;2023-04-08T00:12:05;2.70;99.90
19692;DHT22;42748;50.016;19.890;2023-04-08T00:14:32;2.60;99.90
19692;DHT22;42748;50.016;19.890;2023-04-08T00:16:59;2.60;99.90
19692;DHT22;42748;50.016;19.890;2023-04-08T00:19:26;2.60;99.90
19692;DHT22;42748;50.016;19.890;2023-04-08T00:21:53;2.60;99.90
19692;DHT22;42748;50.016;19.890;2023-04-08T00:24:20;2.50;99.90
19692;DHT22;42748;50.016;19.890;2023-04-08T00:26:47;2.50;99.90
19692;DHT22;42748;50.016;19.890;2023-04-08T00:29:14;2.40;99.90
19692;DHT22;42748;50.016;19.890;2023-04-08T00:31:41;2.40;99.90
19692;DHT22;42748;50.016;19.890;2023-04-08T00:34:08;2.40;99.90
19692;DHT22;42748;50.016;19.890;2023-04-08T00:36:35;2.40;99.90
19692;DHT22;42748;50.016;19.890;2023-04-08T00:39:03;2.30;99.90
19692;DHT22;42748;50.016;19.890;2023-04-08T00:41:33;2.30;99.90
19692;DHT22;42748;50.016;19.890;2023-04-08T00:44:03;2.30;99.90
19692;DHT22;42748;50.016;19.890;2023-04-08T00:46:32;2.30;99.90
19692;DHT22;42748;50.016;19.890;2023-04-08T00:49:02;2.30;99.90
19692;DHT22;42748;50.016;19.890;2023-04-08T00:51:29;2.30;99.90
19692;DHT22;42748;50.016;19.890;2023-04-08T00:53:57;2.20;99.90
19692;DHT22;42748;50.016;19.890;2023-04-08T00:56:26;2.30;99.90
19692;DHT22;42748;50.016;19.890;2023-04-08T00:58:54;2.20;99.90
19692;DHT22;42748;50.016;19.890;2023-04-08T01:01:43;2.20;99.90
19692;DHT22;42748;50.016;19.890;2023-04-08T01:09:48;2.10;99.90
19692;DHT22;42748;50.016;19.890;2023-04-08T01:12:27;2.10;99.90
19692;DHT22;42748;50.016;19.890;2023-04-08T01:15:10;2.00;99.90
19692;DHT22;42748;50.016;19.890;2023-04-08T01:17:39;2.00;99.90
19692;DHT22;42748;50.016;19.890;2023-04-08T01:20:08;1.90;99.90
19692;DHT22;42748;50.016;19.890;2023-04-08T01:25:29;1.90;99.90
19692;DHT22;42748;50.016;19.890;2023-04-08T01:27:59;1.90;99.90
19692;DHT22;42748;50.016;19.890;2023-04-08T01:30:28;1.80;99.90
19692;DHT22;42748;50.016;19.890;2023-04-08T01:32:57;1.90;99.90
19692;DHT22;42748;50.016;19.890;2023-04-08T01:35:26;1.80;99.90
19692;DHT22;42748;50.016;19.890;2023-04-08T01:37:54;1.80;99.90
19692;DHT22;42748;50.016;19.890;2023-04-08T01:40:22;1.70;99.90
19692;DHT22;42748;50.016;19.890;2023-04-08T01:42:53;1.70;99.90
19692;DHT22;42748;50.016;19.890;2023-04-08T01:45:22;1.70;99.90
19692;DHT22;42748;50.016;19.890;2023-04-08T01:47:50;1.80;99.90
19692;DHT22;42748;50.016;19.890;2023-04-08T01:50:20;1.80;99.90
19692;DHT22;42748;50.016;19.890;2023-04-08T01:52:49;1.70;99.90
19692;DHT22;42748;50.016;19.890;2023-04-08T01:55:20;1.80;99.90
19692;DHT22;42748;50.016;19.890;2023-04-08T01:57:51;1.70;99.90
19692;DHT22;42748;50.016;19.890;2023-04-08T02:00:29;1.70;99.90
19692;DHT22;42748;50.016;19.890;2023-04-08T02:02:58;1.70;99.90
19692;DHT22;42748;50.016;19.890;2023-04-08T02:05:27;1.70;99.90
19692;DHT22;42748;50.016;19.890;2023-04-08T02:07:54;1.70;99.90
19692;DHT22;42748;50.016;19.890;2023-04-08T02:10:21;1.70;99.90
19692;DHT22;42748;50.016;19.890;2023-04-08T02:12:49;1.60;99.90
19692;DHT22;42748;50.016;19.890;2023-04-08T02:15:16;1.70;99.90
19692;DHT22;42748;50.016;19.890;2023-04-08T02:20:22;1.60;99.90
19692;DHT22;42748;50.016;19.890;2023-04-08T02:25:28;1.70;99.90
19692;DHT22;42748;50.016;19.890;2023-04-08T02:27:57;1.70;99.90
19692;DHT22;42748;50.016;19.890;2023-04-08T02:30:26;1.70;99.90
19692;DHT22;42748;50.016;19.890;2023-04-08T02:32:55;1.70;99.90
19692;DHT22;42748;50.016;19.890;2023-04-08T02:35:23;1.70;99.90
19692;DHT22;42748;50.016;19.890;2023-04-08T02:37:51;1.80;99.90
19692;DHT22;42748;50.016;19.890;2023-04-08T02:40:30;1.70;99.90
19692;DHT22;42748;50.016;19.890;2023-04-08T02:42:58;1.70;99.90
19692;DHT22;42748;50.016;19.890;2023-04-08T02:45:38;1.80;99.90
19692;DHT22;42748;50.016;19.890;2023-04-08T02:48:07;1.80;99.90
19692;DHT22;42748;50.016;19.890;2023-04-08T02:50:35;1.80;99.90
19692;DHT22;42748;50.016;19.890;2023-04-08T02:53:03;1.70;99.90
19692;DHT22;42748;50.016;19.890;2023-04-08T02:55:32;1.70;99.90
19692;DHT22;42748;50.016;19.890;2023-04-08T02:57:59;1.70;99.90
19692;DHT22;42748;50.016;19.890;2023-04-08T03:00:26;1.80;99.90
19692;DHT22;42748;50.016;19.890;2023-04-08T03:02:53;1.80;99.90
19692;DHT22;42748;50.016;19.890;2023-04-08T03:05:21;1.80;99.90
19692;DHT22;42748;50.016;19.890;2023-04-08T03:07:48;1.80;99.90
19692;DHT22;42748;50.016;19.890;2023-04-08T03:10:15;1.80;99.90
19692;DHT22;42748;50.016;19.890;2023-04-08T03:12:42;1.80;99.90
19692;DHT22;42748;50.016;19.890;2023-04-08T03:15:09;1.70;99.90
19692;DHT22;42748;50.016;19.890;2023-04-08T03:17:36;1.70;99.90
19692;DHT22;42748;50.016;19.890;2023-04-08T03:20:04;1.60;99.90
19692;DHT22;42748;50.016;19.890;2023-04-08T03:22:32;1.60;99.90
19692;DHT22;42748;50.016;19.890;2023-04-08T03:25:00;1.60;99.90
19692;DHT22;42748;50.016;19.890;2023-04-08T03:27:27;1.70;99.90
19692;DHT22;42748;50.016;19.890;2023-04-08T03:29:55;1.60;99.90
19692;DHT22;42748;50.016;19.890;2023-04-08T03:32:23;1.60;99.90
19692;DHT22;42748;50.016;19.890;2023-04-08T03:34:51;1.60;99.90
19692;DHT22;42748;50.016;19.890;2023-04-08T03:37:18;1.70;99.90
19692;DHT22;42748;50.016;19.890;2023-04-08T03:39:45;1.60;99.90
19692;DHT22;42748;50.016;19.890;2023-04-08T03:42:12;1.60;99.90
19692;DHT22;42748;50.016;19.890;2023-04-08T03:44:39;1.60;99.90
19692;DHT22;42748;50.016;19.890;2023-04-08T03:47:06;1.60;99.90
19692;DHT22;42748;50.016;19.890;2023-04-08T03:49:33;1.60;99.90
19692;DHT22;42748;50.016;19.890;2023-04-08T03:52:00;1.60;99.90
19692;DHT22;42748;50.016;19.890;2023-04-08T03:54:27;1.60;99.90
19692;DHT22;42748;50.016;19.890;2023-04-08T03:56:54;1.70;99.90
19692;DHT22;42748;50.016;19.890;2023-04-08T03:59:22;1.70;99.90
19692;DHT22;42748;50.016;19.890;2023-04-08T04:01:49;1.70;99.90
19692;DHT22;42748;50.016;19.890;2023-04-08T04:04:17;1.80;99.90
19692;DHT22;42748;50.016;19.890;2023-04-08T04:06:44;1.80;99.90
19692;DHT22;42748;50.016;19.890;2023-04-08T04:09:11;1.80;99.90
19692;DHT22;42748;50.016;19.890;2023-04-08T04:11:38;1.80;99.90
19692;DHT22;42748;50.016;19.890;2023-04-08T04:14:05;1.80;99.90
19692;DHT22;42748;50.016;19.890;2023-04-08T04:16:32;1.80;99.90
19692;DHT22;42748;50.016;19.890;2023-04-08T04:18:59;1.80;99.90
19692;DHT22;42748;50.016;19.890;2023-04-08T04:21:27;1.80;99.90
19692;DHT22;42748;50.016;19.890;2023-04-08T04:23:54;1.80;99.90
19692;DHT22;42748;50.016;19.890;2023-04-08T04:26:21;1.70;99.90
19692;DHT22;42748;50.016;19.890;2023-04-08T04:28:48;1.70;99.90
19692;DHT22;42748;50.016;19.890;2023-04-08T04:31:23;1.70;99.90
19692;DHT22;42748;50.016;19.890;2023-04-08T04:33:54;1.80;99.90
19692;DHT22;42748;50.016;19.890;2023-04-08T04:36:21;1.80;99.90
19692;DHT22;42748;50.016;19.890;2023-04-08T04:38:48;1.80;99.90
19692;DHT22;42748;50.016;19.890;2023-04-08T04:41:16;1.80;99.90
19692;DHT22;42748;50.016;19.890;2023-04-08T04:43:44;1.80;99.90
19692;DHT22;42748;50.016;19.890;2023-04-08T04:46:11;1.90;99.90
19692;DHT22;42748;50.016;19.890;2023-04-08T04:48:38;1.90;99.90
19692;DHT22;42748;50.016;19.890;2023-04-08T04:51:06;1.90;99.90
19692;DHT22;42748;50.016;19.890;2023-04-08T04:53:33;1.90;99.90
19692;DHT22;42748;50.016;19.890;2023-04-08T04:56:01;1.90;99.90
19692;DHT22;42748;50.016;19.890;2023-04-08T04:58:28;1.90;99.90
19692;DHT22;42748;50.016;19.890;2023-04-08T05:00:57;2.00;99.90
19692;DHT22;42748;50.016;19.890;2023-04-08T05:03:24;2.00;99.90
19692;DHT22;42748;50.016;19.890;2023-04-08T05:05:52;2.00;99.90
19692;DHT22;42748;50.016;19.890;2023-04-08T05:08:20;2.10;99.90
19692;DHT22;42748;50.016;19.890;2023-04-08T05:10:47;2.10;99.90
19692;DHT22;42748;50.016;19.890;2023-04-08T05:13:17;2.10;99.90
19692;DHT22;42748;50.016;19.890;2023-04-08T05:15:45;2.10;99.90
19692;DHT22;42748;50.016;19.890;2023-04-08T05:18:12;2.10;99.90
19692;DHT22;42748;50.016;19.890;2023-04-08T05:20:40;2.10;99.90
19692;DHT22;42748;50.016;19.890;2023-04-08T05:23:07;2.20;99.90
19692;DHT22;42748;50.016;19.890;2023-04-08T05:25:34;2.20;99.90
19692;DHT22;42748;50.016;19.890;2023-04-08T05:28:02;2.20;99.90
19692;DHT22;42748;50.016;19.890;2023-04-08T05:30:29;2.30;99.90
19692;DHT22;42748;50.016;19.890;2023-04-08T05:32:57;2.30;99.90
19692;DHT22;42748;50.016;19.890;2023-04-08T05:35:27;2.30;99.90
19692;DHT22;42748;50.016;19.890;2023-04-08T05:37:54;2.30;99.90
19692;DHT22;42748;50.016;19.890;2023-04-08T05:40:22;2.40;99.90
19692;DHT22;42748;50.016;19.890;2023-04-08T05:42:49;2.40;99.90
19692;DHT22;42748;50.016;19.890;2023-04-08T05:45:16;2.50;99.90
19692;DHT22;42748;50.016;19.890;2023-04-08T05:47:43;2.70;99.90
19692;DHT22;42748;50.016;19.890;2023-04-08T05:50:11;2.90;99.90
19692;DHT22;42748;50.016;19.890;2023-04-08T05:52:41;3.00;99.90
19692;DHT22;42748;50.016;19.890;2023-04-08T05:55:10;3.00;99.90
19692;DHT22;42748;50.016;19.890;2023-04-08T05:57:38;3.30;99.90
19692;DHT22;42748;50.016;19.890;2023-04-08T06:00:06;3.80;99.90
19692;DHT22;42748;50.016;19.890;2023-04-08T06:02:36;4.00;99.90
19692;DHT22;42748;50.016;19.890;2023-04-08T06:05:04;3.80;99.90
19692;DHT22;42748;50.016;19.890;2023-04-08T06:07:32;3.80;99.90
19692;DHT22;42748;50.016;19.890;2023-04-08T06:09:59;3.90;99.90
19692;DHT22;42748;50.016;19.890;2023-04-08T06:12:26;4.00;99.90
19692;DHT22;42748;50.016;19.890;2023-04-08T06:14:57;4.10;99.90
19692;DHT22;42748;50.016;19.890;2023-04-08T06:17:24;4.00;99.90
19692;DHT22;42748;50.016;19.890;2023-04-08T06:19:51;3.90;99.90
19692;DHT22;42748;50.016;19.890;2023-04-08T06:22:18;3.70;99.90
19692;DHT22;42748;50.016;19.890;2023-04-08T06:24:46;3.60;99.90
19692;DHT22;42748;50.016;19.890;2023-04-08T06:27:14;3.60;99.90
19692;DHT22;42748;50.016;19.890;2023-04-08T06:29:42;3.50;99.90
19692;DHT22;42748;50.016;19.890;2023-04-08T06:32:09;3.40;99.90
19692;DHT22;42748;50.016;19.890;2023-04-08T06:34:37;3.50;99.90
19692;DHT22;42748;50.016;19.890;2023-04-08T06:37:04;3.30;99.90
19692;DHT22;42748;50.016;19.890;2023-04-08T06:39:32;3.40;99.90
19692;DHT22;42748;50.016;19.890;2023-04-08T06:41:59;3.40;99.90
19692;DHT22;42748;50.016;19.890;2023-04-08T06:44:50;3.50;99.90
19692;DHT22;42748;50.016;19.890;2023-04-08T06:47:17;3.70;99.90
19692;DHT22;42748;50.016;19.890;2023-04-08T06:49:44;3.70;99.90
19692;DHT22;42748;50.016;19.890;2023-04-08T06:52:12;3.80;99.90
19692;DHT22;42748;50.016;19.890;2023-04-08T06:54:40;4.00;99.90
19692;DHT22;42748;50.016;19.890;2023-04-08T06:57:08;4.20;99.90
19692;DHT22;42748;50.016;19.890;2023-04-08T06:59:35;4.80;99.90
19692;DHT22;42748;50.016;19.890;2023-04-08T07:02:02;5.70;99.90
19692;DHT22;42748;50.016;19.890;2023-04-08T07:04:30;6.30;99.90
19692;DHT22;42748;50.016;19.890;2023-04-08T07:06:57;6.70;99.90
19692;DHT22;42748;50.016;19.890;2023-04-08T07:09:24;7.50;99.90
19692;DHT22;42748;50.016;19.890;2023-04-08T07:11:51;7.50;99.90
19692;DHT22;42748;50.016;19.890;2023-04-08T07:14:18;7.70;99.90
19692;DHT22;42748;50.016;19.890;2023-04-08T07:16:46;7.60;99.90
19692;DHT22;42748;50.016;19.890;2023-04-08T07:19:13;7.20;99.90
19692;DHT22;42748;50.016;19.890;2023-04-08T07:21:40;6.80;99.90
19692;DHT22;42748;50.016;19.890;2023-04-08T07:24:07;6.90;99.90
19692;DHT22;42748;50.016;19.890;2023-04-08T07:26:35;7.40;99.90
19692;DHT22;42748;50.016;19.890;2023-04-08T07:29:04;7.10;99.90
19692;DHT22;42748;50.016;19.890;2023-04-08T07:31:32;6.90;99.90
19692;DHT22;42748;50.016;19.890;2023-04-08T07:33:59;7.40;99.90
19692;DHT22;42748;50.016;19.890;2023-04-08T07:36:26;6.80;99.90
19692;DHT22;42748;50.016;19.890;2023-04-08T07:38:54;6.30;99.90
19692;DHT22;42748;50.016;19.890;2023-04-08T07:41:21;6.80;99.90
19692;DHT22;42748;50.016;19.890;2023-04-08T07:43:48;7.60;99.90
19692;DHT22;42748;50.016;19.890;2023-04-08T07:46:15;8.50;99.90
19692;DHT22;42748;50.016;19.890;2023-04-08T07:48:42;8.60;99.90
19692;DHT22;42748;50.016;19.890;2023-04-08T07:51:09;8.70;99.90
19692;DHT22;42748;50.016;19.890;2023-04-08T07:53:38;8.40;99.90
19692;DHT22;42748;50.016;19.890;2023-04-08T07:56:13;8.20;99.90
19692;DHT22;42748;50.016;19.890;2023-04-08T07:58:41;7.80;99.90
19692;DHT22;42748;50.016;19.890;2023-04-08T08:01:18;8.00;99.90
19692;DHT22;42748;50.016;19.890;2023-04-08T08:03:50;7.50;99.90
19692;DHT22;42748;50.016;19.890;2023-04-08T08:06:19;7.20;99.90
19692;DHT22;42748;50.016;19.890;2023-04-08T08:08:46;7.20;99.90
19692;DHT22;42748;50.016;19.890;2023-04-08T08:11:13;7.00;99.90
19692;DHT22;42748;50.016;19.890;2023-04-08T08:13:40;6.70;99.90
19692;DHT22;42748;50.016;19.890;2023-04-08T08:16:08;6.80;99.90
19692;DHT22;42748;50.016;19.890;2023-04-08T08:18:38;6.60;99.90
19692;DHT22;42748;50.016;19.890;2023-04-08T08:21:07;6.70;99.90
19692;DHT22;42748;50.016;19.890;2023-04-08T08:23:34;6.70;99.90
19692;DHT22;42748;50.016;19.890;2023-04-08T08:26:02;6.70;99.90
19692;DHT22;42748;50.016;19.890;2023-04-08T08:28:30;6.70;99.90
19692;DHT22;42748;50.016;19.890;2023-04-08T08:30:58;6.90;99.90
19692;DHT22;42748;50.016;19.890;2023-04-08T08:33:25;7.20;99.90
19692;DHT22;42748;50.016;19.890;2023-04-08T08:35:52;7.50;99.90
19692;DHT22;42748;50.016;19.890;2023-04-08T08:38:19;7.80;99.90
19692;DHT22;42748;50.016;19.890;2023-04-08T08:40:53;8.00;99.90
19692;DHT22;42748;50.016;19.890;2023-04-08T08:43:21;7.90;99.90
19692;DHT22;42748;50.016;19.890;2023-04-08T08:45:48;8.10;99.90
19692;DHT22;42748;50.016;19.890;2023-04-08T08:48:15;8.10;99.90
19692;DHT22;42748;50.016;19.890;2023-04-08T08:50:43;7.80;99.90
19692;DHT22;42748;50.016;19.890;2023-04-08T08:53:11;7.30;99.90
19692;DHT22;42748;50.016;19.890;2023-04-08T08:55:39;6.80;99.90
19692;DHT22;42748;50.016;19.890;2023-04-08T08:58:26;6.80;99.90
19692;DHT22;42748;50.016;19.890;2023-04-08T09:00:54;6.90;99.90
19692;DHT22;42748;50.016;19.890;2023-04-08T09:03:25;7.00;99.90
19692;DHT22;42748;50.016;19.890;2023-04-08T09:05:58;7.20;99.90
19692;DHT22;42748;50.016;19.890;2023-04-08T09:08:30;7.10;99.90
19692;DHT22;42748;50.016;19.890;2023-04-08T09:13:38;7.40;99.90
19692;DHT22;42748;50.016;19.890;2023-04-08T09:16:10;7.80;99.90
19692;DHT22;42748;50.016;19.890;2023-04-08T09:18:38;7.60;99.90
19692;DHT22;42748;50.016;19.890;2023-04-08T09:21:06;7.50;99.90
19692;DHT22;42748;50.016;19.890;2023-04-08T09:23:46;7.50;99.90
19692;DHT22;42748;50.016;19.890;2023-04-08T09:26:22;7.70;99.90
19692;DHT22;42748;50.016;19.890;2023-04-08T09:31:40;9.10;99.90
19692;DHT22;42748;50.016;19.890;2023-04-08T09:34:15;9.60;99.90
19692;DHT22;42748;50.016;19.890;2023-04-08T09:36:43;9.60;99.90
19692;DHT22;42748;50.016;19.890;2023-04-08T09:39:11;9.40;99.90
19692;DHT22;42748;50.016;19.890;2023-04-08T09:41:38;9.30;99.90
19692;DHT22;42748;50.016;19.890;2023-04-08T09:44:08;8.90;99.90
19692;DHT22;42748;50.016;19.890;2023-04-08T09:47:00;8.40;99.90
19692;DHT22;42748;50.016;19.890;2023-04-08T09:49:54;8.20;99.90
19692;DHT22;42748;50.016;19.890;2023-04-08T09:52:29;8.20;99.90
19692;DHT22;42748;50.016;19.890;2023-04-08T09:55:04;8.30;99.90
19692;DHT22;42748;50.016;19.890;2023-04-08T09:57:51;8.30;99.90
19692;DHT22;42748;50.016;19.890;2023-04-08T10:00:32;7.90;99.90
19692;DHT22;42748;50.016;19.890;2023-04-08T10:03:56;7.50;99.90
19692;DHT22;42748;50.016;19.890;2023-04-08T10:06:01;7.60;99.90
19692;DHT22;42748;50.016;19.890;2023-04-08T10:08:30;7.50;99.90
19692;DHT22;42748;50.016;19.890;2023-04-08T10:10:59;7.50;99.90
19692;DHT22;42748;50.016;19.890;2023-04-08T10:13:26;7.60;99.90
19692;DHT22;42748;50.016;19.890;2023-04-08T10:18:50;7.00;99.90
19692;DHT22;42748;50.016;19.890;2023-04-08T10:21:40;6.70;99.90
19692;DHT22;42748;50.016;19.890;2023-04-08T10:24:14;6.60;99.90
19692;DHT22;42748;50.016;19.890;2023-04-08T10:26:42;6.60;99.90
19692;DHT22;42748;50.016;19.890;2023-04-08T10:31:46;6.50;99.90
19692;DHT22;42748;50.016;19.890;2023-04-08T10:34:24;6.50;99.90
19692;DHT22;42748;50.016;19.890;2023-04-08T10:36:55;6.60;99.90
19692;DHT22;42748;50.016;19.890;2023-04-08T10:39:24;6.60;99.90
19692;DHT22;42748;50.016;19.890;2023-04-08T10:41:51;6.50;99.90
19692;DHT22;42748;50.016;19.890;2023-04-08T10:44:23;6.40;99.90
19692;DHT22;42748;50.016;19.890;2023-04-08T10:46:51;6.30;99.90
19692;DHT22;42748;50.016;19.890;2023-04-08T10:49:18;6.20;99.90
19692;DHT22;42748;50.016;19.890;2023-04-08T10:51:45;6.10;99.90
19692;DHT22;42748;50.016;19.890;2023-04-08T10:54:15;6.00;99.90
19692;DHT22;42748;50.016;19.890;2023-04-08T10:56:52;6.10;99.90
19692;DHT22;42748;50.016;19.890;2023-04-08T10:59:29;6.10;99.90
19692;DHT22;42748;50.016;19.890;2023-04-08T11:01:58;6.10;99.90
19692;DHT22;42748;50.016;19.890;2023-04-08T11:04:27;6.10;99.90
19692;DHT22;42748;50.016;19.890;2023-04-08T11:06:55;6.00;99.90
19692;DHT22;42748;50.016;19.890;2023-04-08T11:09:22;6.00;99.90
19692;DHT22;42748;50.016;19.890;2023-04-08T11:11:49;6.00;99.90
19692;DHT22;42748;50.016;19.890;2023-04-08T11:14:18;5.90;99.90
19692;DHT22;42748;50.016;19.890;2023-04-08T11:16:47;6.00;99.90
19692;DHT22;42748;50.016;19.890;2023-04-08T11:19:15;6.00;99.90
19692;DHT22;42748;50.016;19.890;2023-04-08T11:21:42;6.10;99.90
19692;DHT22;42748;50.016;19.890;2023-04-08T11:24:10;6.10;99.90
19692;DHT22;42748;50.016;19.890;2023-04-08T11:26:38;6.00;99.90
19692;DHT22;42748;50.016;19.890;2023-04-08T11:29:05;6.00;99.90
19692;DHT22;42748;50.016;19.890;2023-04-08T11:31:39;6.00;99.90
19692;DHT22;42748;50.016;19.890;2023-04-08T11:34:07;6.00;99.90
19692;DHT22;42748;50.016;19.890;2023-04-08T11:36:34;6.00;99.90
19692;DHT22;42748;50.016;19.890;2023-04-08T11:39:06;5.90;99.90
19692;DHT22;42748;50.016;19.890;2023-04-08T11:41:38;5.90;99.90
19692;DHT22;42748;50.016;19.890;2023-04-08T11:44:06;5.80;99.90
19692;DHT22;42748;50.016;19.890;2023-04-08T11:46:34;5.80;99.90
19692;DHT22;42748;50.016;19.890;2023-04-08T11:49:07;5.90;99.90
19692;DHT22;42748;50.016;19.890;2023-04-08T11:51:47;5.90;99.90
19692;DHT22;42748;50.016;19.890;2023-04-08T11:54:29;5.90;99.90
19692;DHT22;42748;50.016;19.890;2023-04-08T11:56:58;5.90;99.90
19692;DHT22;42748;50.016;19.890;2023-04-08T11:59:25;5.70;99.90
19692;DHT22;42748;50.016;19.890;2023-04-08T12:01:55;5.70;99.90
19692;DHT22;42748;50.016;19.890;2023-04-08T12:04:22;5.70;99.90
19692;DHT22;42748;50.016;19.890;2023-04-08T12:06:50;5.70;99.90
19692;DHT22;42748;50.016;19.890;2023-04-08T12:09:18;5.60;99.90
19692;DHT22;42748;50.016;19.890;2023-04-08T12:11:45;5.70;99.90
19692;DHT22;42748;50.016;19.890;2023-04-08T12:14:12;5.80;99.90
19692;DHT22;42748;50.016;19.890;2023-04-08T12:16:40;5.80;99.90
19692;DHT22;42748;50.016;19.890;2023-04-08T12:19:07;5.90;99.90
19692;DHT22;42748;50.016;19.890;2023-04-08T12:21:34;6.00;99.90
19692;DHT22;42748;50.016;19.890;2023-04-08T12:24:01;6.00;99.90
19692;DHT22;42748;50.016;19.890;2023-04-08T12:26:29;5.90;99.90
19692;DHT22;42748;50.016;19.890;2023-04-08T12:28:56;5.90;99.90
19692;DHT22;42748;50.016;19.890;2023-04-08T12:31:24;6.00;99.90
19692;DHT22;42748;50.016;19.890;2023-04-08T12:33:53;6.00;99.90
19692;DHT22;42748;50.016;19.890;2023-04-08T12:36:20;6.00;99.90
19692;DHT22;42748;50.016;19.890;2023-04-08T12:38:48;6.00;99.90
19692;DHT22;42748;50.016;19.890;2023-04-08T12:41:15;6.00;99.90
19692;DHT22;42748;50.016;19.890;2023-04-08T12:43:42;6.00;99.90
19692;DHT22;42748;50.016;19.890;2023-04-08T12:46:10;6.00;99.90
19692;DHT22;42748;50.016;19.890;2023-04-08T12:48:37;6.00;99.90
19692;DHT22;42748;50.016;19.890;2023-04-08T12:51:05;6.00;99.90
19692;DHT22;42748;50.016;19.890;2023-04-08T12:53:32;6.10;99.90
19692;DHT22;42748;50.016;19.890;2023-04-08T12:55:59;6.10;99.90
19692;DHT22;42748;50.016;19.890;2023-04-08T12:58:26;6.10;99.90
19692;DHT22;42748;50.016;19.890;2023-04-08T13:00:53;6.10;99.90
19692;DHT22;42748;50.016;19.890;2023-04-08T13:03:20;6.10;99.90
19692;DHT22;42748;50.016;19.890;2023-04-08T13:05:48;6.20;99.90
19692;DHT22;42748;50.016;19.890;2023-04-08T13:08:15;6.20;99.90
19692;DHT22;42748;50.016;19.890;2023-04-08T13:10:43;6.30;99.90
19692;DHT22;42748;50.016;19.890;2023-04-08T13:13:10;6.30;99.90
19692;DHT22;42748;50.016;19.890;2023-04-08T13:15:39;6.30;99.90
19692;DHT22;42748;50.016;19.890;2023-04-08T13:18:07;6.40;99.90
19692;DHT22;42748;50.016;19.890;2023-04-08T13:20:34;6.40;99.90
19692;DHT22;42748;50.016;19.890;2023-04-08T13:23:02;6.50;99.90
19692;DHT22;42748;50.016;19.890;2023-04-08T13:25:29;6.60;99.90
19692;DHT22;42748;50.016;19.890;2023-04-08T13:27:56;6.70;99.90
19692;DHT22;42748;50.016;19.890;2023-04-08T13:30:23;6.60;99.90
19692;DHT22;42748;50.016;19.890;2023-04-08T13:32:50;6.60;99.90
19692;DHT22;42748;50.016;19.890;2023-04-08T13:35:18;6.60;99.90
19692;DHT22;42748;50.016;19.890;2023-04-08T13:37:45;6.60;99.90
19692;DHT22;42748;50.016;19.890;2023-04-08T13:40:12;6.60;99.90
19692;DHT22;42748;50.016;19.890;2023-04-08T13:42:40;6.60;99.90
19692;DHT22;42748;50.016;19.890;2023-04-08T13:45:07;6.70;99.90
19692;DHT22;42748;50.016;19.890;2023-04-08T13:47:34;6.70;99.90
19692;DHT22;42748;50.016;19.890;2023-04-08T13:50:05;6.60;99.90
19692;DHT22;42748;50.016;19.890;2023-04-08T13:52:32;6.60;99.90
19692;DHT22;42748;50.016;19.890;2023-04-08T13:55:00;6.60;99.90
19692;DHT22;42748;50.016;19.890;2023-04-08T13:57:27;6.70;99.90
19692;DHT22;42748;50.016;19.890;2023-04-08T13:59:54;6.90;99.90
19692;DHT22;42748;50.016;19.890;2023-04-08T14:02:21;7.00;99.90
19692;DHT22;42748;50.016;19.890;2023-04-08T14:04:49;7.00;99.90
19692;DHT22;42748;50.016;19.890;2023-04-08T14:07:16;7.00;99.90
19692;DHT22;42748;50.016;19.890;2023-04-08T14:09:45;7.10;99.90
19692;DHT22;42748;50.016;19.890;2023-04-08T14:12:12;7.20;99.90
19692;DHT22;42748;50.016;19.890;2023-04-08T14:14:39;7.30;99.90
19692;DHT22;42748;50.016;19.890;2023-04-08T14:17:06;7.30;99.90
19692;DHT22;42748;50.016;19.890;2023-04-08T14:19:33;7.20;99.90
19692;DHT22;42748;50.016;19.890;2023-04-08T14:22:01;7.20;99.90
19692;DHT22;42748;50.016;19.890;2023-04-08T14:24:28;7.30;99.90
19692;DHT22;42748;50.016;19.890;2023-04-08T14:26:56;7.40;99.90
19692;DHT22;42748;50.016;19.890;2023-04-08T14:29:23;7.40;99.90
19692;DHT22;42748;50.016;19.890;2023-04-08T14:31:53;7.50;99.90
19692;DHT22;42748;50.016;19.890;2023-04-08T14:34:20;7.50;99.90
19692;DHT22;42748;50.016;19.890;2023-04-08T14:36:47;7.50;99.90
19692;DHT22;42748;50.016;19.890;2023-04-08T14:39:14;7.50;99.90
19692;DHT22;42748;50.016;19.890;2023-04-08T14:41:41;7.40;99.90
19692;DHT22;42748;50.016;19.890;2023-04-08T14:44:08;7.40;99.90
19692;DHT22;42748;50.016;19.890;2023-04-08T14:46:35;7.40;99.90
19692;DHT22;42748;50.016;19.890;2023-04-08T14:49:03;7.40;99.90
19692;DHT22;42748;50.016;19.890;2023-04-08T14:51:30;7.30;99.90
19692;DHT22;42748;50.016;19.890;2023-04-08T14:53:57;7.30;99.90
19692;DHT22;42748;50.016;19.890;2023-04-08T14:56:24;7.30;99.90
19692;DHT22;42748;50.016;19.890;2023-04-08T14:58:52;7.30;99.90
19692;DHT22;42748;50.016;19.890;2023-04-08T15:01:19;7.30;99.90
19692;DHT22;42748;50.016;19.890;2023-04-08T15:03:46;7.30;99.90
19692;DHT22;42748;50.016;19.890;2023-04-08T15:06:14;7.30;99.90
19692;DHT22;42748;50.016;19.890;2023-04-08T15:08:43;7.30;99.90
19692;DHT22;42748;50.016;19.890;2023-04-08T15:11:11;7.30;99.90
19692;DHT22;42748;50.016;19.890;2023-04-08T15:13:38;7.20;99.90
19692;DHT22;42748;50.016;19.890;2023-04-08T15:16:06;7.30;99.90
19692;DHT22;42748;50.016;19.890;2023-04-08T15:18:33;7.30;99.90
19692;DHT22;42748;50.016;19.890;2023-04-08T15:21:00;7.30;99.90
19692;DHT22;42748;50.016;19.890;2023-04-08T15:23:27;7.40;99.90
19692;DHT22;42748;50.016;19.890;2023-04-08T15:25:55;7.50;99.90
19692;DHT22;42748;50.016;19.890;2023-04-08T15:28:25;7.50;99.90
19692;DHT22;42748;50.016;19.890;2023-04-08T15:30:53;7.50;99.90
19692;DHT22;42748;50.016;19.890;2023-04-08T15:33:20;7.40;99.90
19692;DHT22;42748;50.016;19.890;2023-04-08T15:35:47;7.40;99.90
19692;DHT22;42748;50.016;19.890;2023-04-08T15:38:15;7.40;99.90
19692;DHT22;42748;50.016;19.890;2023-04-08T15:40:43;7.40;99.90
19692;DHT22;42748;50.016;19.890;2023-04-08T15:43:13;7.40;99.90
19692;DHT22;42748;50.016;19.890;2023-04-08T15:45:42;7.40;99.90
19692;DHT22;42748;50.016;19.890;2023-04-08T15:48:10;7.40;99.90
19692;DHT22;42748;50.016;19.890;2023-04-08T15:50:40;7.40;99.90
19692;DHT22;42748;50.016;19.890;2023-04-08T15:53:07;7.40;99.90
19692;DHT22;42748;50.016;19.890;2023-04-08T15:55:41;7.40;99.90
19692;DHT22;42748;50.016;19.890;2023-04-08T15:58:08;7.40;99.90
19692;DHT22;42748;50.016;19.890;2023-04-08T16:00:35;7.50;99.90
19692;DHT22;42748;50.016;19.890;2023-04-08T16:03:02;7.50;99.90
19692;DHT22;42748;50.016;19.890;2023-04-08T16:05:31;7.40;99.90